METAR Data
IDs: Format: Raw Decoded Include TAF

Data at: 1949 UTC 26 Sep 2021

LIMJ 261920Z 03011KT CAVOK 21/17 Q1017